Time;durP1;ratioP1;P1;durP2;ratioP2;P2;SDS_P1;SDS_P2;PMS_P1;PMS_P2;Temp;Humidity;BMP_temperature;BMP_pressure;BME280_temperature;BME280_humidity;BME280_pressure;Samples;Min_cycle;Max_cycle;Signal;HPM_P1;HPM_P2
2024/01/16 00:01:18;;;;;;;104.22;54.20;;;;;;;0.87;100.00;98117.91;5051138;28;20028;-67
2024/01/16 00:03:44;;;;;;;110.22;54.65;;;;;;;0.81;100.00;98119.94;5051057;28;20020;-68
2024/01/16 00:06:10;;;;;;;105.40;52.15;;;;;;;0.66;100.00;98118.25;5029264;28;20106;-67
2024/01/16 00:08:35;;;;;;;118.63;55.17;;;;;;;0.50;100.00;98114.97;5031309;28;20104;-67
2024/01/16 00:11:04;;;;;;;114.82;55.53;;;;;;;0.57;100.00;98120.06;5031288;28;20043;-67
2024/01/16 00:13:29;;;;;;;112.38;56.33;;;;;;;0.05;100.00;98098.09;5071192;28;20021;-67
2024/01/16 00:15:56;;;;;;;110.18;54.85;;;;;;;0.28;100.00;98096.38;5053074;28;20039;-68
2024/01/16 00:18:22;;;;;;;115.10;56.22;;;;;;;-0.04;100.00;98114.44;5053056;28;20028;-67
2024/01/16 00:20:48;;;;;;;113.43;58.97;;;;;;;-0.45;100.00;98113.94;5052012;28;20453;-67
2024/01/16 00:23:13;;;;;;;109.38;56.35;;;;;;;-0.45;100.00;98113.09;5061876;28;20134;-68
2024/01/16 00:25:38;;;;;;;107.72;56.67;;;;;;;-0.33;100.00;98104.44;5070946;28;20028;-67
2024/01/16 00:28:04;;;;;;;142.45;66.78;;;;;;;-0.39;100.00;98122.91;5071095;28;20016;-67
2024/01/16 00:30:30;;;;;;;116.43;59.33;;;;;;;-0.30;100.00;98120.31;5052040;28;20021;-68
2024/01/16 00:32:55;;;;;;;111.53;56.90;;;;;;;-0.09;100.00;98122.78;5050999;28;20021;-67
2024/01/16 00:35:21;;;;;;;119.72;59.17;;;;;;;0.09;100.00;98127.44;5032942;28;20017;-67
2024/01/16 00:37:46;;;;;;;117.93;58.90;;;;;;;0.06;100.00;98118.97;5050869;28;20080;-67
2024/01/16 00:40:12;;;;;;;113.80;55.20;;;;;;;0.05;100.00;98117.34;5063389;28;20413;-68
2024/01/16 00:42:38;;;;;;;118.05;56.83;;;;;;;0.05;100.00;98114.59;5041987;28;20029;-67
2024/01/16 00:45:04;;;;;;;115.30;61.83;;;;;;;0.11;100.00;98113.41;5050339;28;20024;-67
2024/01/16 00:47:29;;;;;;;113.15;54.25;;;;;;;0.08;100.00;98111.25;5067090;28;20035;-67
2024/01/16 00:49:55;;;;;;;113.93;56.20;;;;;;;0.19;100.00;98103.66;5070238;28;20017;-67
2024/01/16 00:52:20;;;;;;;110.95;55.75;;;;;;;0.25;100.00;98099.72;5085928;28;20031;-67
2024/01/16 00:54:46;;;;;;;116.57;53.78;;;;;;;0.10;100.00;98096.06;5048414;28;20033;-68
2024/01/16 00:57:11;;;;;;;113.13;55.17;;;;;;;0.04;100.00;98090.97;5045070;28;20025;-69
2024/01/16 00:59:37;;;;;;;113.60;52.63;;;;;;;0.04;100.00;98078.03;5032868;28;20029;-69
2024/01/16 01:02:03;;;;;;;105.35;54.65;;;;;;;0.10;100.00;98093.31;5061415;28;20024;-68
2024/01/16 01:04:29;;;;;;;107.82;55.83;;;;;;;0.03;100.00;98103.91;5070669;28;20104;-68
2024/01/16 01:06:55;;;;;;;114.47;56.65;;;;;;;0.08;100.00;98116.75;5043440;28;20414;-68
2024/01/16 01:09:20;;;;;;;110.30;53.50;;;;;;;0.13;100.00;98109.25;5051791;28;20028;-68
2024/01/16 01:11:46;;;;;;;108.75;56.67;;;;;;;0.17;100.00;98106.69;5054125;28;20083;-69
2024/01/16 01:14:11;;;;;;;120.13;55.97;;;;;;;0.17;100.00;98094.91;5034256;28;20021;-68
2024/01/16 01:16:37;;;;;;;110.05;52.78;;;;;;;0.21;100.00;98088.50;5034456;28;20410;-68
2024/01/16 01:19:03;;;;;;;102.97;55.33;;;;;;;0.25;100.00;98077.72;5039434;28;20424;-68
2024/01/16 01:21:28;;;;;;;101.30;53.47;;;;;;;0.26;100.00;98080.16;5034415;28;20056;-69
2024/01/16 01:23:54;;;;;;;109.65;57.10;;;;;;;0.25;100.00;98072.22;5044224;28;20498;-68
2024/01/16 01:26:19;;;;;;;101.20;51.97;;;;;;;0.09;100.00;98072.44;5054171;28;20055;-69
2024/01/16 01:28:45;;;;;;;113.88;56.55;;;;;;;0.05;100.00;98087.09;5042098;28;20018;-68
2024/01/16 01:31:11;;;;;;;117.18;55.28;;;;;;;-0.66;100.00;98085.09;5041647;28;20060;-68
2024/01/16 01:33:37;;;;;;;110.68;55.90;;;;;;;-0.50;100.00;98086.50;5054165;28;20021;-68
2024/01/16 01:36:03;;;;;;;120.43;60.72;;;;;;;-0.72;100.00;98087.09;5054044;28;20024;-69
2024/01/16 01:38:29;;;;;;;117.20;59.78;;;;;;;-0.81;100.00;98075.94;5053865;28;20437;-68
2024/01/16 01:40:54;;;;;;;121.35;61.83;;;;;;;-0.77;100.00;98076.97;5036163;28;20498;-68
2024/01/16 01:43:21;;;;;;;122.18;58.90;;;;;;;-0.93;100.00;98086.53;5053747;28;20036;-69
2024/01/16 01:46:05;;;;;;;126.00;58.75;;;;;;;-0.73;100.00;98086.25;5035961;28;20116;-68
2024/01/16 01:48:31;;;;;;;111.32;54.65;;;;;;;-0.56;100.00;98087.72;5033981;28;20498;-68
2024/01/16 01:50:58;;;;;;;108.88;53.00;;;;;;;-0.51;100.00;98092.31;5049746;28;20071;-68
2024/01/16 01:53:24;;;;;;;104.65;52.38;;;;;;;-0.90;100.00;98088.69;5053929;28;20021;-68
2024/01/16 01:55:50;;;;;;;117.75;54.30;;;;;;;-0.79;100.00;98097.59;5038258;28;20025;-68
2024/01/16 01:58:16;;;;;;;112.30;57.58;;;;;;;-1.04;100.00;98100.38;5065250;28;20429;-68
2024/01/16 02:00:41;;;;;;;112.60;54.05;;;;;;;-1.32;100.00;98083.66;5053706;28;20460;-68
2024/01/16 02:03:07;;;;;;;109.10;55.58;;;;;;;-1.19;100.00;98079.41;5039556;28;20036;-68
2024/01/16 02:05:33;;;;;;;112.50;58.72;;;;;;;-1.28;100.00;98081.97;5053763;28;20032;-69
2024/01/16 02:08:00;;;;;;;129.05;66.90;;;;;;;-1.18;100.00;98072.78;5053682;28;20447;-68
2024/01/16 02:10:26;;;;;;;123.90;64.93;;;;;;;-1.33;100.00;98084.78;5053337;28;20025;-69
2024/01/16 02:12:51;;;;;;;128.52;61.08;;;;;;;-0.97;100.00;98085.47;5053342;28;20406;-68
2024/01/16 02:15:17;;;;;;;114.03;55.55;;;;;;;-0.82;100.00;98081.72;5053198;28;20094;-68
2024/01/16 02:17:42;;;;;;;115.88;58.92;;;;;;;-0.63;100.00;98092.72;5053151;28;20103;-68
2024/01/16 02:20:08;;;;;;;117.35;57.75;;;;;;;-0.52;100.00;98080.50;5050226;28;20071;-68
2024/01/16 02:22:35;;;;;;;108.43;55.25;;;;;;;-0.37;100.00;98070.41;5051364;28;20029;-68
2024/01/16 02:25:04;;;;;;;141.18;69.07;;;;;;;-1.13;100.00;98072.75;5053119;28;20032;-68
2024/01/16 02:27:29;;;;;;;124.72;60.05;;;;;;;-1.14;100.00;98081.25;5054508;28;20054;-68
2024/01/16 02:29:55;;;;;;;127.65;67.00;;;;;;;-1.20;100.00;98071.47;5072843;28;20016;-69
2024/01/16 02:32:20;;;;;;;142.70;69.35;;;;;;;-0.86;100.00;98057.59;5053527;28;20032;-68
2024/01/16 02:35:23;;;;;;;121.70;60.15;;;;;;;-0.88;100.00;98075.47;5034508;28;20037;-68
2024/01/16 02:41:13;;;;;;;104.05;51.47;;;;;;;-0.47;100.00;98076.88;5053235;28;20099;-68
2024/01/16 02:43:38;;;;;;;111.32;52.85;;;;;;;-0.48;100.00;98076.06;5035007;28;20477;-68
2024/01/16 02:46:04;;;;;;;109.47;51.88;;;;;;;-0.37;100.00;98064.91;5051614;28;20021;-68
2024/01/16 02:48:29;;;;;;;102.25;53.40;;;;;;;-0.31;100.00;98075.53;5034797;28;20025;-68
2024/01/16 02:50:55;;;;;;;113.85;52.72;;;;;;;-0.21;100.00;98080.06;5063966;28;20033;-68
2024/01/16 02:53:20;;;;;;;107.03;53.83;;;;;;;-0.24;100.00;98083.44;5054348;28;20029;-68
2024/01/16 02:55:46;;;;;;;111.25;54.97;;;;;;;-0.12;100.00;98096.69;5034816;28;20036;-68
2024/01/16 02:58:11;;;;;;;107.72;53.10;;;;;;;-0.44;100.00;98104.56;5052186;28;20029;-68
2024/01/16 03:00:37;;;;;;;122.57;57.80;;;;;;;-0.52;100.00;98112.66;5069333;28;20408;-68
2024/01/16 03:03:03;;;;;;;134.40;62.10;;;;;;;-0.33;100.00;98093.44;5054503;28;20029;-68
2024/01/16 03:05:28;;;;;;;119.90;56.25;;;;;;;-0.30;100.00;98088.19;5054489;28;20024;-68
2024/01/16 03:07:54;;;;;;;133.52;62.53;;;;;;;-0.90;100.00;98113.38;5072274;28;20024;-68
2024/01/16 03:10:19;;;;;;;122.90;57.08;;;;;;;-0.51;100.00;98101.34;5059956;28;20033;-68
2024/01/16 03:12:44;;;;;;;120.22;58.40;;;;;;;-1.14;100.00;98114.19;5091521;28;20047;-68
2024/01/16 03:15:10;;;;;;;115.13;57.83;;;;;;;-0.80;100.00;98110.53;5092747;28;20023;-67
2024/01/16 03:17:35;;;;;;;111.63;57.50;;;;;;;-0.54;100.00;98110.19;5074172;28;20022;-67
2024/01/16 03:20:03;;;;;;;120.60;65.18;;;;;;;-0.45;100.00;98097.44;5066764;28;20032;-67
2024/01/16 03:22:28;;;;;;;116.80;54.17;;;;;;;-0.44;100.00;98092.75;5054004;28;20474;-67
2024/01/16 03:24:54;;;;;;;119.15;55.80;;;;;;;-0.39;100.00;98089.94;5056862;28;20055;-67
2024/01/16 03:27:19;;;;;;;113.60;56.42;;;;;;;-0.40;100.00;98092.97;5092161;28;20035;-67
2024/01/16 03:29:45;;;;;;;116.53;55.75;;;;;;;-0.70;100.00;98112.31;5063994;28;20032;-67
2024/01/16 03:32:10;;;;;;;110.18;56.55;;;;;;;-1.18;100.00;98116.69;5051714;28;20404;-67
2024/01/16 03:34:36;;;;;;;103.40;54.50;;;;;;;-0.95;100.00;98132.69;5051979;28;20466;-67
2024/01/16 03:37:01;;;;;;;113.43;55.65;;;;;;;-1.00;100.00;98115.13;5068054;28;20105;-68
2024/01/16 03:39:27;;;;;;;116.47;60.08;;;;;;;-0.66;100.00;98120.78;5042622;28;20028;-67
2024/01/16 03:41:52;;;;;;;131.45;66.85;;;;;;;-0.71;100.00;98119.75;5065032;28;20563;-67
2024/01/16 03:44:18;;;;;;;109.60;59.35;;;;;;;-0.52;100.00;98120.91;5071599;28;20555;-67
2024/01/16 03:46:43;;;;;;;113.72;56.08;;;;;;;-0.80;100.00;98121.50;5071542;28;20025;-67
2024/01/16 03:49:09;;;;;;;106.13;51.08;;;;;;;-0.69;100.00;98118.66;5055272;28;20028;-67
2024/01/16 03:51:35;;;;;;;89.88;45.58;;;;;;;-0.91;100.00;98117.25;5051632;28;20021;-67
2024/01/16 03:54:00;;;;;;;94.75;46.08;;;;;;;-0.63;100.00;98120.19;5051363;28;20032;-67
2024/01/16 03:56:26;;;;;;;91.40;46.38;;;;;;;-0.49;100.00;98128.53;5038094;28;20021;-67
2024/01/16 03:58:51;;;;;;;83.68;44.42;;;;;;;-0.58;100.00;98142.94;5065374;28;20021;-67
2024/01/16 04:01:17;;;;;;;80.63;41.42;;;;;;;-0.66;100.00;98145.50;5051454;28;20502;-67
2024/01/16 04:03:42;;;;;;;80.85;41.95;;;;;;;-0.40;100.00;98147.94;5051279;28;20021;-67
2024/01/16 04:06:17;;;;;;;83.57;40.28;;;;;;;-0.38;100.00;98159.44;5051315;28;20502;-67
2024/01/16 04:08:43;;;;;;;92.75;44.80;;;;;;;-0.25;100.00;98169.72;5051109;28;20074;-67
2024/01/16 04:11:13;;;;;;;87.32;43.63;;;;;;;-0.35;100.00;98184.41;5051161;28;20456;-67
2024/01/16 04:13:39;;;;;;;88.40;44.00;;;;;;;-0.30;100.00;98183.53;5037130;28;20029;-67
2024/01/16 04:16:04;;;;;;;86.93;44.45;;;;;;;-0.19;100.00;98163.03;5056801;28;20028;-67
2024/01/16 04:18:35;;;;;;;73.57;36.60;;;;;;;-0.20;100.00;98166.06;5040861;28;20024;-67
2024/01/16 04:21:01;;;;;;;94.90;43.97;;;;;;;-0.14;100.00;98173.16;5071130;28;20051;-67
2024/01/16 04:23:26;;;;;;;88.03;44.78;;;;;;;-0.27;100.00;98185.69;5070986;28;20024;-67
2024/01/16 04:25:52;;;;;;;90.00;47.85;;;;;;;-0.02;100.00;98192.78;5068445;28;20388;-67
2024/01/16 04:28:17;;;;;;;89.53;49.17;;;;;;;0.11;100.00;98193.16;5032273;28;20474;-67
2024/01/16 04:30:42;;;;;;;78.60;41.90;;;;;;;-0.69;100.00;98212.81;5051065;28;20024;-67
2024/01/16 04:33:08;;;;;;;89.53;45.30;;;;;;;-0.55;100.00;98203.88;5051261;28;20039;-67
2024/01/16 04:35:33;;;;;;;89.38;44.95;;;;;;;-0.73;100.00;98215.31;5048778;28;20028;-67
2024/01/16 04:37:59;;;;;;;91.85;47.28;;;;;;;-0.81;100.00;98207.75;5060260;28;20033;-67
2024/01/16 04:40:24;;;;;;;100.78;50.35;;;;;;;-0.72;100.00;98218.91;5060850;28;20032;-67
2024/01/16 04:42:50;;;;;;;93.80;48.65;;;;;;;-0.80;100.00;98211.28;5070915;28;20036;-67
2024/01/16 04:45:15;;;;;;;84.45;45.30;;;;;;;-0.72;100.00;98214.25;5073775;28;20028;-67
2024/01/16 04:47:41;;;;;;;72.60;38.92;;;;;;;-0.66;100.00;98214.19;5053861;28;20024;-67
2024/01/16 04:50:07;;;;;;;79.35;41.35;;;;;;;-0.43;100.00;98224.34;5077440;28;20019;-67
2024/01/16 04:52:33;;;;;;;81.80;40.88;;;;;;;-0.50;100.00;98234.84;5077220;28;20149;-67
2024/01/16 04:54:58;;;;;;;75.65;38.28;;;;;;;-0.25;100.00;98232.91;5077381;28;20032;-67
2024/01/16 04:57:24;;;;;;;77.03;42.47;;;;;;;-0.09;100.00;98252.00;5072631;28;20021;-67
2024/01/16 04:59:50;;;;;;;73.50;39.15;;;;;;;0.00;100.00;98250.22;5039288;28;20025;-67
2024/01/16 05:02:17;;;;;;;77.95;39.90;;;;;;;-0.42;100.00;98244.41;5057166;28;20017;-67
2024/01/16 05:04:42;;;;;;;86.03;40.08;;;;;;;-0.34;100.00;98251.19;5074071;28;20031;-67
2024/01/16 05:07:08;;;;;;;77.25;40.88;;;;;;;-0.24;100.00;98259.31;5057362;28;20021;-67
2024/01/16 05:09:33;;;;;;;101.18;51.58;;;;;;;-0.72;100.00;98274.66;5077229;28;20017;-67
2024/01/16 05:11:59;;;;;;;111.03;55.15;;;;;;;-0.47;100.00;98292.00;5076537;28;20040;-68
2024/01/16 05:14:25;;;;;;;123.22;62.00;;;;;;;-0.76;100.00;98309.28;5077339;28;20032;-67
2024/01/16 05:16:51;;;;;;;101.45;53.42;;;;;;;-0.96;100.00;98329.50;5062480;28;20064;-68
2024/01/16 05:19:17;;;;;;;89.35;45.92;;;;;;;-0.95;100.00;98330.34;5045557;28;20020;-67
2024/01/16 05:21:42;;;;;;;74.60;39.00;;;;;;;-0.99;100.00;98321.84;5059375;28;20055;-68
2024/01/16 05:24:08;;;;;;;78.38;39.22;;;;;;;-0.95;100.00;98322.91;5074000;28;20081;-69
2024/01/16 05:26:33;;;;;;;94.82;43.67;;;;;;;-1.01;100.00;98327.63;5076737;28;20082;-69
2024/01/16 05:28:59;;;;;;;98.63;51.30;;;;;;;-0.91;100.00;98343.19;5074071;28;20027;-68
2024/01/16 05:31:24;;;;;;;90.40;49.92;;;;;;;-0.77;100.00;98342.53;5071567;28;20534;-66
2024/01/16 05:33:50;;;;;;;85.57;43.92;;;;;;;-0.89;100.00;98351.13;5075728;28;20459;-68
2024/01/16 05:36:15;;;;;;;84.82;43.53;;;;;;;-0.78;100.00;98355.44;5055630;28;20028;-68
2024/01/16 05:38:41;;;;;;;80.50;39.20;;;;;;;-0.61;100.00;98360.53;5076364;28;20028;-68
2024/01/16 05:41:06;;;;;;;73.82;37.88;;;;;;;-0.51;100.00;98364.28;5072644;28;20036;-68
2024/01/16 05:43:32;;;;;;;76.00;38.00;;;;;;;-0.48;100.00;98366.47;5075335;28;20093;-67
2024/01/16 05:45:57;;;;;;;62.47;31.88;;;;;;;-0.32;100.00;98378.13;5076150;28;20040;-68
2024/01/16 05:48:23;;;;;;;61.13;29.08;;;;;;;-0.32;100.00;98386.38;5055214;28;20131;-68
2024/01/16 05:50:48;;;;;;;55.05;28.42;;;;;;;-0.19;100.00;98391.19;5074224;28;20128;-68
2024/01/16 05:53:14;;;;;;;50.33;25.00;;;;;;;-0.21;100.00;98390.66;5070266;28;20485;-68
2024/01/16 05:55:39;;;;;;;47.65;24.42;;;;;;;-0.05;100.00;98387.75;5075383;28;20036;-68
2024/01/16 05:58:05;;;;;;;69.60;33.58;;;;;;;-0.09;100.00;98411.44;5073689;28;20024;-68
2024/01/16 06:00:30;;;;;;;71.30;33.80;;;;;;;-0.09;100.00;98419.69;5055601;28;20421;-67
2024/01/16 06:02:56;;;;;;;59.33;31.83;;;;;;;-0.03;100.00;98429.50;5055724;28;20467;-67
2024/01/16 06:05:21;;;;;;;54.88;27.63;;;;;;;0.08;100.00;98431.03;5073590;28;20123;-67
2024/01/16 06:07:47;;;;;;;61.13;30.20;;;;;;;0.25;100.00;98438.03;5071989;28;20021;-67
2024/01/16 06:10:16;;;;;;;61.88;31.83;;;;;;;0.53;100.00;98443.78;5061479;28;20417;-67
2024/01/16 06:12:41;;;;;;;94.97;46.75;;;;;;;0.62;100.00;98454.94;5073291;28;20131;-68
2024/01/16 06:15:07;;;;;;;140.25;79.13;;;;;;;0.74;100.00;98451.78;5073380;28;20111;-68
2024/01/16 06:17:33;;;;;;;111.38;56.58;;;;;;;0.71;100.00;98461.44;5073426;28;20028;-68
2024/01/16 06:19:59;;;;;;;83.28;45.45;;;;;;;0.81;100.00;98461.31;5073253;28;20104;-69
2024/01/16 06:22:24;;;;;;;72.82;37.92;;;;;;;0.82;100.00;98473.13;5073130;28;20107;-68
2024/01/16 06:24:50;;;;;;;61.05;34.83;;;;;;;0.92;100.00;98473.00;5068283;28;20051;-68
2024/01/16 06:27:18;;;;;;;72.88;41.83;;;;;;;1.04;100.00;98480.03;5052784;28;20059;-67
2024/01/16 06:29:48;;;;;;;101.60;51.80;;;;;;;1.14;100.00;98488.16;5070272;28;20036;-69
2024/01/16 06:32:14;;;;;;;94.93;50.47;;;;;;;1.21;100.00;98483.09;5052082;28;20093;-71
2024/01/16 06:34:39;;;;;;;80.45;47.92;;;;;;;1.33;100.00;98481.84;5052944;28;20036;-70
2024/01/16 06:37:04;;;;;;;64.22;35.47;;;;;;;1.56;100.00;98487.53;5062718;28;20107;-70
2024/01/16 06:39:30;;;;;;;45.72;28.75;;;;;;;1.61;100.00;98493.78;5043687;28;20546;-70
2024/01/16 06:41:56;;;;;;;39.90;24.33;;;;;;;1.77;100.00;98505.41;5068018;28;20466;-70
2024/01/16 06:44:21;;;;;;;40.80;23.98;;;;;;;1.91;100.00;98507.41;5041110;28;20090;-70
2024/01/16 06:46:47;;;;;;;37.67;21.25;;;;;;;2.10;100.00;98516.47;5069180;28;20129;-70
2024/01/16 06:49:12;;;;;;;33.50;18.08;;;;;;;2.38;100.00;98516.53;5050811;28;20055;-71
2024/01/16 06:51:38;;;;;;;24.23;13.55;;;;;;;2.49;100.00;98516.34;5046057;28;20462;-72
2024/01/16 06:54:03;;;;;;;20.40;13.05;;;;;;;2.84;100.00;98525.06;5051931;28;20035;-71
2024/01/16 06:56:29;;;;;;;22.60;14.23;;;;;;;2.87;100.00;98541.00;5041182;28;20029;-72
2024/01/16 06:58:55;;;;;;;34.38;17.13;;;;;;;3.01;100.00;98541.03;5058949;28;20575;-71
2024/01/16 07:01:20;;;;;;;22.77;13.98;;;;;;;3.17;100.00;98562.81;5064398;28;20029;-71
2024/01/16 07:03:46;;;;;;;20.35;13.38;;;;;;;3.44;100.00;98573.03;5068740;28;20032;-72
2024/01/16 07:06:12;;;;;;;22.63;12.00;;;;;;;3.65;100.00;98578.91;5070721;28;20047;-74
2024/01/16 07:08:37;;;;;;;15.93;10.32;;;;;;;3.68;100.00;98591.31;5069644;28;20078;-74
2024/01/16 07:11:07;;;;;;;20.05;12.02;;;;;;;3.69;100.00;98587.41;5069540;28;20052;-72
2024/01/16 07:13:33;;;;;;;23.42;13.85;;;;;;;3.70;100.00;98597.34;5041565;28;20086;-73
2024/01/16 07:15:58;;;;;;;20.50;12.63;;;;;;;3.74;100.00;98623.28;5053558;28;20128;-72
2024/01/16 07:18:24;;;;;;;29.38;14.23;;;;;;;3.77;100.00;98627.34;5066240;28;20266;-72
2024/01/16 07:20:49;;;;;;;24.25;13.90;;;;;;;3.86;100.00;98630.19;5035715;28;20025;-70
2024/01/16 07:23:15;;;;;;;27.92;13.82;;;;;;;3.98;100.00;98643.50;5033215;28;20021;-70
2024/01/16 07:25:40;;;;;;;29.10;14.27;;;;;;;3.90;100.00;98639.53;5038058;28;20021;-69
2024/01/16 07:28:06;;;;;;;33.72;14.00;;;;;;;4.03;100.00;98657.22;5058984;28;20497;-70
2024/01/16 07:30:31;;;;;;;25.40;13.05;;;;;;;4.05;100.00;98666.03;5053744;28;20444;-69
2024/01/16 07:32:57;;;;;;;17.25;9.95;;;;;;;4.12;100.00;98658.13;5052546;28;20028;-69
2024/01/16 07:35:22;;;;;;;16.13;8.80;;;;;;;4.16;100.00;98672.16;5048514;28;20036;-69
2024/01/16 07:37:48;;;;;;;18.13;10.48;;;;;;;4.26;100.00;98680.22;5068164;28;20051;-69
2024/01/16 07:40:16;;;;;;;18.23;10.63;;;;;;;4.19;100.00;98693.66;5053039;28;20031;-70
2024/01/16 07:42:41;;;;;;;20.02;12.18;;;;;;;4.25;100.00;98699.91;5071626;28;20136;-69
2024/01/16 07:45:07;;;;;;;23.13;12.25;;;;;;;4.19;100.00;98713.06;5071737;28;20473;-69
2024/01/16 07:47:32;;;;;;;19.27;10.57;;;;;;;4.26;99.17;98720.94;5069724;28;20508;-69
2024/01/16 07:49:59;;;;;;;14.32;10.50;;;;;;;4.30;98.72;98725.53;5067957;28;20028;-71
2024/01/16 07:52:25;;;;;;;14.93;8.68;;;;;;;4.23;99.48;98733.47;5044190;28;20469;-71
2024/01/16 07:54:50;;;;;;;8.88;6.88;;;;;;;4.20;98.71;98742.38;5068891;28;20077;-71
2024/01/16 07:57:16;;;;;;;11.48;8.63;;;;;;;4.15;99.22;98757.13;5064982;28;20102;-70
2024/01/16 07:59:41;;;;;;;18.10;9.75;;;;;;;4.15;99.42;98750.78;5055141;28;20060;-72
2024/01/16 08:02:08;;;;;;;10.13;7.60;;;;;;;4.14;98.73;98763.81;5043633;28;20028;-73
2024/01/16 08:04:34;;;;;;;11.88;7.85;;;;;;;4.12;98.71;98768.03;5067415;28;20032;-73
2024/01/16 08:06:59;;;;;;;10.43;8.20;;;;;;;4.15;99.10;98770.16;5071021;28;20033;-74
2024/01/16 08:09:25;;;;;;;11.98;8.60;;;;;;;4.14;98.66;98771.31;5050683;28;20023;-72
2024/01/16 08:11:50;;;;;;;13.02;7.78;;;;;;;4.14;99.17;98774.06;5070605;28;20044;-72
2024/01/16 08:14:16;;;;;;;11.18;8.05;;;;;;;4.14;99.65;98779.59;5052198;28;20051;-74
2024/01/16 08:16:41;;;;;;;18.65;10.23;;;;;;;4.21;98.45;98780.00;5070546;28;20099;-72
2024/01/16 08:19:07;;;;;;;11.13;7.95;;;;;;;4.33;96.96;98769.22;5070095;28;20020;-72
2024/01/16 08:21:33;;;;;;;13.95;7.88;;;;;;;4.44;96.40;98783.66;5067045;28;20095;-73
2024/01/16 08:23:58;;;;;;;11.57;6.15;;;;;;;4.56;95.44;98779.53;5069632;28;20028;-73
2024/01/16 08:26:24;;;;;;;12.32;6.82;;;;;;;4.67;95.42;98791.19;5070138;28;20028;-71
2024/01/16 08:28:50;;;;;;;10.00;6.85;;;;;;;4.73;95.46;98795.50;5070369;28;20032;-72
2024/01/16 08:31:19;;;;;;;11.98;6.53;;;;;;;4.80;93.45;98803.38;5070603;28;20036;-73
2024/01/16 08:33:45;;;;;;;11.48;7.07;;;;;;;4.82;94.00;98804.69;5051522;28;20035;-72
2024/01/16 08:36:11;;;;;;;14.27;8.20;;;;;;;4.90;91.26;98811.47;5070283;28;20040;-72
2024/01/16 08:38:36;;;;;;;10.00;6.22;;;;;;;4.84;92.19;98816.28;5069865;28;20024;-74
2024/01/16 08:41:04;;;;;;;25.38;14.32;;;;;;;4.94;92.46;98836.56;5059761;28;20047;-73
2024/01/16 08:43:29;;;;;;;26.42;11.85;;;;;;;4.85;93.36;98834.56;5061385;28;20033;-71
2024/01/16 08:45:55;;;;;;;30.20;15.63;;;;;;;4.88;92.58;98846.94;5060583;28;20039;-72
2024/01/16 08:48:20;;;;;;;19.42;10.63;;;;;;;4.85;91.19;98839.28;5050537;28;20025;-72
2024/01/16 08:50:46;;;;;;;25.45;14.93;;;;;;;4.95;90.23;98855.66;5057918;28;20086;-70
2024/01/16 08:53:11;;;;;;;62.05;28.23;;;;;;;4.97;88.60;98853.41;5060201;28;20037;-76
2024/01/16 08:55:37;;;;;;;17.92;10.73;;;;;;;4.97;89.23;98858.13;5061154;28;20036;-74
2024/01/16 08:58:03;;;;;;;17.90;9.68;;;;;;;4.95;87.48;98861.22;5068036;28;20028;-74
2024/01/16 09:00:28;;;;;;;15.85;7.93;;;;;;;5.02;86.43;98863.56;5050337;28;20027;-73
2024/01/16 09:02:53;;;;;;;18.60;7.95;;;;;;;5.01;85.50;98865.53;5061047;28;20044;-72
2024/01/16 09:05:21;;;;;;;20.55;10.00;;;;;;;4.98;85.15;98868.09;5056064;28;20028;-69
2024/01/16 09:07:47;;;;;;;19.52;12.63;;;;;;;4.92;84.59;98867.38;5055069;28;20078;-70
2024/01/16 09:10:13;;;;;;;20.65;9.73;;;;;;;4.91;84.09;98880.41;5047582;28;20463;-70
2024/01/16 09:12:38;;;;;;;14.43;8.98;;;;;;;4.92;83.57;98875.69;5057797;28;20492;-70
2024/01/16 09:15:04;;;;;;;13.57;6.95;;;;;;;4.95;81.95;98890.88;5032974;28;20030;-71
2024/01/16 09:17:30;;;;;;;18.05;8.07;;;;;;;4.86;82.65;98888.03;5040470;28;20509;-73
2024/01/16 09:19:56;;;;;;;13.75;6.22;;;;;;;4.87;80.72;98896.03;5047568;28;20152;-72
2024/01/16 09:22:21;;;;;;;13.07;7.18;;;;;;;4.89;80.06;98892.97;5063066;28;20021;-72
2024/01/16 09:24:47;;;;;;;25.15;10.25;;;;;;;4.95;79.58;98905.56;5037351;28;20030;-72
2024/01/16 09:27:14;;;;;;;22.60;12.35;;;;;;;4.88;79.54;98894.91;5054227;28;20375;-72
2024/01/16 09:29:39;;;;;;;23.50;11.90;;;;;;;4.99;79.81;98900.22;5045682;28;20043;-73
2024/01/16 09:32:05;;;;;;;21.33;9.10;;;;;;;5.02;79.06;98914.28;5062948;28;20028;-70
2024/01/16 09:34:30;;;;;;;16.75;9.27;;;;;;;5.11;78.58;98916.28;5070359;28;20557;-70
2024/01/16 09:36:59;;;;;;;28.98;13.10;;;;;;;5.14;77.46;98913.72;5055685;28;20024;-71
2024/01/16 09:39:24;;;;;;;20.40;10.48;;;;;;;5.24;78.55;98918.19;5073279;28;20032;-70
2024/01/16 09:41:50;;;;;;;24.70;11.90;;;;;;;5.27;76.88;98917.59;5042165;28;20048;-69
2024/01/16 09:44:15;;;;;;;16.70;8.50;;;;;;;5.22;78.60;98922.44;5069491;28;20040;-70
2024/01/16 09:46:46;;;;;;;11.88;6.28;;;;;;;5.27;76.05;98917.59;5068004;28;20090;-70
2024/01/16 09:49:14;;;;;;;10.13;6.50;;;;;;;5.36;76.36;98914.91;5073217;28;20024;-69
2024/01/16 09:51:40;;;;;;;15.60;7.47;;;;;;;5.40;76.23;98926.19;5055562;28;20036;-69
2024/01/16 09:54:08;;;;;;;14.32;8.25;;;;;;;5.44;74.74;98924.41;5070772;28;20024;-69
2024/01/16 09:56:38;;;;;;;25.77;11.93;;;;;;;5.54;74.53;98937.22;5052890;28;20028;-70
2024/01/16 09:59:07;;;;;;;41.20;11.63;;;;;;;5.64;75.08;98936.97;5066303;28;20495;-73
2024/01/16 10:01:33;;;;;;;17.08;8.85;;;;;;;5.56;73.59;98946.06;5063869;28;20032;-71
2024/01/16 10:03:59;;;;;;;15.23;8.32;;;;;;;5.60;74.77;98961.75;5070402;28;20524;-73
2024/01/16 10:06:27;;;;;;;20.60;11.10;;;;;;;5.69;74.73;98961.00;5067594;28;20128;-72
2024/01/16 10:08:53;;;;;;;21.02;12.15;;;;;;;5.63;74.92;98949.19;5071209;28;20055;-71
2024/01/16 10:11:18;;;;;;;12.40;7.45;;;;;;;5.73;74.47;98957.28;5069665;28;20529;-71
2024/01/16 10:13:48;;;;;;;22.30;10.45;;;;;;;5.75;73.87;98954.19;5068838;28;20032;-73
2024/01/16 10:16:13;;;;;;;12.90;6.23;;;;;;;5.69;72.85;98961.00;5044074;28;20500;-73
2024/01/16 10:18:38;;;;;;;10.63;5.70;;;;;;;5.67;71.88;98955.78;5052169;28;20067;-73
2024/01/16 10:21:05;;;;;;;20.05;7.05;;;;;;;5.76;72.39;98950.28;5050569;28;20024;-73
2024/01/16 10:23:34;;;;;;;13.07;7.35;;;;;;;5.75;71.60;98952.22;5069011;28;20414;-73
2024/01/16 10:26:11;;;;;;;20.17;7.32;;;;;;;5.73;70.70;98948.97;5052585;28;20205;-71
2024/01/16 10:28:39;;;;;;;27.20;6.90;;;;;;;5.82;68.39;98959.31;5052353;28;20043;-71
2024/01/16 10:31:09;;;;;;;11.77;5.93;;;;;;;5.82;69.43;98965.66;5061326;28;20481;-70
2024/01/16 10:33:37;;;;;;;;;;;;;;;5.79;70.46;98963.53;5040178;28;20024;-72
2024/01/16 10:36:10;;;;;;;11.63;5.03;;;;;;;5.81;65.80;98968.78;5052687;28;19969;-74
2024/01/16 10:38:38;;;;;;;12.02;6.13;;;;;;;5.86;65.62;98969.47;5066351;28;20036;-72
2024/01/16 10:41:14;;;;;;;14.90;7.65;;;;;;;5.81;66.17;98966.81;5068119;28;20089;-71
2024/01/16 10:43:40;;;;;;;10.10;5.18;;;;;;;5.90;68.07;98980.72;5063917;28;20629;-72
2024/01/16 10:46:11;;;;;;;14.90;7.57;;;;;;;5.89;68.03;98981.88;5072688;28;20086;-71
2024/01/16 10:48:41;;;;;;;9.65;5.45;;;;;;;5.96;65.54;98979.50;5056722;28;20031;-71
2024/01/16 10:51:08;;;;;;;15.98;7.75;;;;;;;5.97;67.08;98983.91;5070261;28;20482;-71
2024/01/16 10:53:34;;;;;;;17.55;7.65;;;;;;;5.97;65.55;98977.50;5071154;28;20109;-71
2024/01/16 10:56:01;;;;;;;32.15;13.40;;;;;;;5.95;65.97;98980.63;5053578;28;20041;-69
2024/01/16 10:58:31;;;;;;;35.67;12.95;;;;;;;5.95;65.74;98988.13;5050476;28;20142;-73
2024/01/16 11:01:01;;;;;;;23.83;8.75;;;;;;;6.02;64.25;98992.13;5051260;28;20074;-72
2024/01/16 11:03:37;;;;;;;25.25;5.90;;;;;;;5.96;63.56;98982.25;5069742;28;20029;-72
2024/01/16 11:06:09;;;;;;;7.90;3.80;;;;;;;5.96;63.25;98984.22;5050002;28;20574;-72
2024/01/16 11:08:39;;;;;;;15.75;7.72;;;;;;;5.98;64.78;98984.72;5067750;28;20040;-71
2024/01/16 11:11:05;;;;;;;10.18;4.82;;;;;;;6.07;63.94;98987.59;5071405;28;20048;-71
2024/01/16 11:13:34;;;;;;;12.23;5.13;;;;;;;6.06;63.24;98978.44;5072221;28;20390;-71